Impacts TAF Board
For situational awareness. Not to be used for flight planning purposes.
IDs:

KTLH - Tallahassee Intl, FL, US

Issued at 1722 UTC 21 May 2022
Updated at 2229 UTC 21 May 2022
Potential Impact None Slight Moderate High
Time2153Z 21/23Z 22/00Z 22/01Z 22/02Z 22/03Z 22/04Z 22/05Z 22/06Z 22/07Z 22/08Z 22/09Z 22/10Z 22/11Z>>
Type OBS PRVL PRVL PRVL PRVL PRVL PRVL PRVL PRVL PRVL PRVL PRVL PRVL PRVL
VIS 10 >6 >6 >6 >6 >6 >6 >6 >6 >6 >6 >6 >6 >6
CIG 250 70 70 70 70 70 70 70 70 70 70 70 70 70
Cover OVC BKN BKN BKN BKN BKN BKN BKN BKN BKN BKN BKN BKN BKN
FltCat VFR VFR VFR VFR VFR VFR VFR VFR VFR VFR VFR VFR VFR VFR
WX -- -- -- -- -- -- -- -- -- -- -- -- -- --
WDir 120 200 200 200 200 200 200 200 200 200 200 200 200 200
WSpd 3 10 10 10 10 10 10 10 10 10 10 10 10 10
WGst -- -- -- -- -- -- -- -- -- -- -- -- -- --
WSHgt -- -- -- -- -- -- -- -- -- -- -- -- -- --
WSDir -- -- -- -- -- -- -- -- -- -- -- -- -- --
WSSpd -- -- -- -- -- -- -- -- -- -- -- -- -- --
R09/27
XWnd -2 -9 -9 -9 -9 -9 -9 -9 -9 -9 -9 -9 -9 -9
R18/36
XWnd 3 -4 -4 -4 -4 -4 -4 -4 -4 -4 -4 -4 -4 -4
Raw TAF
KTLH 211722Z 2118/2218 18009KT 6SM TSRA SCT020CB BKN070
  FM212000 20010KT P6SM SCT020 BKN070
  FM221500 19005KT P6SM VCTS SCT050CB


Raw METAR
KTLH 212153Z 12003KT 10SM SCT120 OVC250 27/22 A3012 RMK AO2 SLP198 T02720222
KTLH 212053Z 10005KT 10SM SCT120 OVC250 26/22 A3012 RMK AO2 SLP198 60000 T02610217 56017
KTLH 211953Z VRB03KT 10SM FEW010 SCT100 OVC200 26/22 A3013 RMK AO2 RAB29E43 TSE46 SLP202 P0000 T02560217
KTLH 211948Z 05003KT 10SM FEW010 SCT100 OVC200 25/22 A3013 RMK AO2 RAB29E43 TSE46 P0000

METAR Board
Radar Display
Forecast Discussion
For situational awareness. Not to be used for flight planning purposes.